createdAt,value
2022-07-31T00:04:54.902Z,3.20
2022-07-31T00:09:54.697Z,2.67
2022-07-31T00:14:55.020Z,2.88
2022-07-31T00:19:53.779Z,3.03
2022-07-31T00:24:52.836Z,3.03
2022-07-31T00:29:54.458Z,3.20
2022-07-31T00:34:53.375Z,3.10
2022-07-31T00:39:52.177Z,3.58
2022-07-31T00:44:51.717Z,3.13
2022-07-31T00:49:52.055Z,3.38
2022-07-31T00:54:51.016Z,3.80
2022-07-31T00:59:50.622Z,3.38
2022-07-31T01:04:49.384Z,4.57
2022-07-31T01:09:50.866Z,4.32
2022-07-31T01:19:51.837Z,4.57
2022-07-31T01:25:04.861Z,4.65
2022-07-31T01:30:14.287Z,4.28
2022-07-31T01:35:17.284Z,3.97
2022-07-31T01:40:21.534Z,4.95
2022-07-31T01:45:23.792Z,4.68
2022-07-31T01:50:43.757Z,4.50
2022-07-31T01:55:56.385Z,5.07
2022-07-31T02:01:05.742Z,4.32
2022-07-31T02:06:05.918Z,4.63
2022-07-31T02:11:04.935Z,4.07
2022-07-31T02:16:07.689Z,4.55
2022-07-31T02:21:07.941Z,4.57
2022-07-31T02:26:08.946Z,4.68
2022-07-31T02:31:12.597Z,4.05
2022-07-31T02:36:14.304Z,4.88
2022-07-31T02:41:15.806Z,5.75
2022-07-31T02:46:16.473Z,4.00
2022-07-31T02:51:15.474Z,5.38
2022-07-31T02:56:15.842Z,4.03
2022-07-31T03:01:17.031Z,4.30
2022-07-31T03:06:16.354Z,4.03
2022-07-31T03:11:15.410Z,4.55
2022-07-31T03:16:15.677Z,4.38
2022-07-31T03:21:16.831Z,4.47
2022-07-31T03:26:18.283Z,3.80
2022-07-31T03:31:17.257Z,4.68
2022-07-31T03:36:17.880Z,5.45
2022-07-31T03:41:16.972Z,4.68
2022-07-31T03:46:18.196Z,5.22
2022-07-31T03:56:18.833Z,4.82
2022-07-31T04:01:20.651Z,4.32
2022-07-31T04:06:22.590Z,4.68
2022-07-31T04:11:21.359Z,5.38
2022-07-31T04:16:20.199Z,5.03
2022-07-31T04:21:19.451Z,5.50
2022-07-31T04:26:25.607Z,5.00
2022-07-31T04:31:33.639Z,5.03
2022-07-31T04:36:32.874Z,4.80
2022-07-31T04:41:34.067Z,6.05
2022-07-31T04:46:32.882Z,5.43
2022-07-31T04:51:31.681Z,5.43
2022-07-31T04:56:37.679Z,5.68
2022-07-31T05:01:39.041Z,6.10
2022-07-31T05:06:39.274Z,6.13
2022-07-31T05:11:38.942Z,6.03
2022-07-31T05:16:39.638Z,5.68
2022-07-31T05:21:52.862Z,5.93
2022-07-31T05:27:09.055Z,6.05
2022-07-31T05:32:09.410Z,6.15
2022-07-31T05:37:09.141Z,6.50
2022-07-31T05:42:09.321Z,6.18
2022-07-31T05:47:40.091Z,5.90
2022-07-31T05:52:40.980Z,5.82
2022-07-31T05:57:54.720Z,6.07
2022-07-31T06:02:55.020Z,5.78
2022-07-31T06:08:13.642Z,5.75
2022-07-31T06:13:16.673Z,5.60
2022-07-31T06:18:17.194Z,6.15
2022-07-31T06:23:22.836Z,6.40
2022-07-31T06:28:47.635Z,7.32
2022-07-31T06:33:51.219Z,7.60
2022-07-31T06:38:55.216Z,8.43
2022-07-31T06:44:21.463Z,8.73
2022-07-31T06:49:40.907Z,8.80
2022-07-31T06:54:39.679Z,9.37
2022-07-31T06:59:39.182Z,8.90
2022-07-31T07:10:00.112Z,8.93
2022-07-31T07:15:17.342Z,9.75
2022-07-31T07:20:17.646Z,8.10
2022-07-31T07:25:16.558Z,8.35
2022-07-31T07:30:15.638Z,7.30
2022-07-31T07:35:14.600Z,7.68
2022-07-31T07:40:26.969Z,8.50
2022-07-31T07:45:25.926Z,8.82
2022-07-31T07:50:27.091Z,8.63
2022-07-31T07:55:56.936Z,8.97
2022-07-31T08:01:14.298Z,7.85
2022-07-31T08:06:15.035Z,8.45
2022-07-31T08:11:17.369Z,8.45
2022-07-31T08:16:37.375Z,8.75
2022-07-31T08:21:36.410Z,7.90
2022-07-31T08:26:51.401Z,8.95
2022-07-31T08:31:51.836Z,9.35
2022-07-31T08:37:59.106Z,9.23
2022-07-31T08:42:36.799Z,8.47
2022-07-31T08:47:37.307Z,10.48
2022-07-31T08:52:44.715Z,9.93
2022-07-31T08:57:51.895Z,10.82
2022-07-31T09:02:52.385Z,11.80
2022-07-31T09:08:17.102Z,11.73
2022-07-31T09:13:21.046Z,12.02
2022-07-31T09:18:24.828Z,10.93
2022-07-31T09:23:46.681Z,11.98
2022-07-31T09:28:51.451Z,12.05
2022-07-31T09:33:50.279Z,13.70
2022-07-31T09:39:20.486Z,13.98
2022-07-31T09:44:47.638Z,13.35
2022-07-31T09:49:54.661Z,12.95
2022-07-31T09:55:03.060Z,12.15
2022-07-31T10:00:17.760Z,12.25
2022-07-31T10:05:18.867Z,11.02
2022-07-31T10:10:18.781Z,12.00
2022-07-31T10:15:38.800Z,10.63
2022-07-31T10:21:08.160Z,10.48
2022-07-31T10:27:00.696Z,10.38
2022-07-31T10:32:02.501Z,11.50
2022-07-31T10:37:11.321Z,9.90
2022-07-31T10:42:45.927Z,9.65
2022-07-31T10:47:57.494Z,9.38
2022-07-31T10:53:16.556Z,10.13
2022-07-31T10:58:32.643Z,9.48
2022-07-31T11:03:46.662Z,9.35
2022-07-31T11:09:03.903Z,9.90
2022-07-31T11:14:33.322Z,8.85
2022-07-31T11:19:54.233Z,8.50
2022-07-31T11:24:55.614Z,8.98
2022-07-31T11:30:01.945Z,8.70
2022-07-31T11:35:04.373Z,9.07
2022-07-31T11:40:06.480Z,7.93
2022-07-31T11:45:11.134Z,7.95
2022-07-31T11:50:30.936Z,6.18
2022-07-31T11:55:29.922Z,6.65
2022-07-31T12:00:30.162Z,6.85
2022-07-31T12:05:38.862Z,6.63
2022-07-31T12:10:39.895Z,7.47
2022-07-31T12:20:38.392Z,5.05
2022-07-31T12:25:45.770Z,2.75
2022-07-31T12:30:45.406Z,2.20
2022-07-31T12:35:54.963Z,3.22
2022-07-31T12:41:05.351Z,2.92
2022-07-31T12:46:06.255Z,2.38
2022-07-31T12:51:06.434Z,2.75
2022-07-31T12:56:05.557Z,2.45
2022-07-31T13:01:04.564Z,2.13
2022-07-31T13:06:03.335Z,1.93
2022-07-31T13:11:03.481Z,2.00
2022-07-31T13:16:02.228Z,3.08
2022-07-31T13:21:01.446Z,2.80
2022-07-31T13:31:00.936Z,2.93
2022-07-31T13:35:59.694Z,2.90
2022-07-31T13:41:15.873Z,3.10
2022-07-31T13:46:16.116Z,3.03
2022-07-31T13:51:15.051Z,2.80
2022-07-31T13:56:14.047Z,2.88
2022-07-31T14:02:02.999Z,3.40
2022-07-31T14:06:52.901Z,3.53
2022-07-31T14:11:51.663Z,4.22
2022-07-31T14:16:51.813Z,3.65
2022-07-31T14:21:57.121Z,3.80
2022-07-31T14:26:56.197Z,4.30
2022-07-31T14:31:56.502Z,3.65
2022-07-31T14:36:55.254Z,3.40
2022-07-31T14:41:54.014Z,2.90
2022-07-31T14:46:52.852Z,3.08
2022-07-31T14:51:53.034Z,3.15
2022-07-31T14:57:01.297Z,3.33
2022-07-31T15:02:00.668Z,3.25
2022-07-31T15:07:18.967Z,2.90
2022-07-31T15:12:19.981Z,1.70
2022-07-31T15:17:18.717Z,1.30
2022-07-31T15:22:19.511Z,1.35
2022-07-31T15:27:19.062Z,1.23
2022-07-31T15:32:17.814Z,1.42
2022-07-31T15:37:20.342Z,0.77
2022-07-31T15:42:23.224Z,1.08
2022-07-31T15:47:22.047Z,1.58
2022-07-31T15:52:20.852Z,0.82
2022-07-31T15:57:21.272Z,1.13
2022-07-31T16:02:19.995Z,1.33
2022-07-31T16:08:31.906Z,1.25
2022-07-31T16:12:39.169Z,1.03
2022-07-31T16:17:40.793Z,0.75
2022-07-31T16:22:41.157Z,1.30
2022-07-31T16:27:41.569Z,1.20
2022-07-31T16:32:40.561Z,1.10
2022-07-31T16:37:51.111Z,1.27
2022-07-31T16:42:53.798Z,1.40
2022-07-31T16:47:52.581Z,1.35
2022-07-31T16:52:54.557Z,1.33
2022-07-31T16:57:55.370Z,1.27
2022-07-31T17:02:54.500Z,1.50
2022-07-31T17:07:53.273Z,3.70
2022-07-31T17:12:52.142Z,3.55
2022-07-31T17:17:52.383Z,3.55
2022-07-31T17:22:54.449Z,21.33
2022-07-31T17:27:53.603Z,5.60
2022-07-31T17:32:53.696Z,3.78
2022-07-31T17:37:52.508Z,3.30
2022-07-31T17:42:51.303Z,2.85
2022-07-31T17:48:03.773Z,3.50
2022-07-31T17:53:04.237Z,3.53
2022-07-31T17:58:03.023Z,3.72
2022-07-31T18:03:02.395Z,3.03
2022-07-31T18:08:01.352Z,3.47
2022-07-31T18:13:01.513Z,2.92
2022-07-31T18:18:00.285Z,2.37
2022-07-31T18:22:59.047Z,3.03
2022-07-31T18:27:59.100Z,2.88
2022-07-31T18:32:59.280Z,3.88
2022-07-31T18:37:58.617Z,4.00
2022-07-31T18:42:57.364Z,3.45
2022-07-31T18:47:56.213Z,2.92
2022-07-31T18:52:56.365Z,4.18
2022-07-31T18:57:55.212Z,4.00
2022-07-31T19:02:56.582Z,4.60
2022-07-31T19:07:56.990Z,3.25
2022-07-31T19:12:56.307Z,3.40
2022-07-31T19:17:57.718Z,3.78
2022-07-31T19:22:59.131Z,3.72
2022-07-31T19:27:57.864Z,4.10
2022-07-31T19:32:56.881Z,3.55
2022-07-31T19:38:01.080Z,3.92
2022-07-31T19:42:59.878Z,3.88
2022-07-31T19:47:58.863Z,3.72
2022-07-31T19:52:57.645Z,4.00
2022-07-31T19:57:57.808Z,4.53
2022-07-31T20:02:56.988Z,3.10
2022-07-31T20:07:55.897Z,4.20
2022-07-31T20:12:54.637Z,4.18
2022-07-31T20:17:54.777Z,4.30
2022-07-31T20:22:53.691Z,3.55
2022-07-31T20:27:52.507Z,3.85
2022-07-31T20:32:51.710Z,3.20
2022-07-31T20:37:55.664Z,5.57
2022-07-31T20:42:54.607Z,3.40
2022-07-31T20:47:53.442Z,4.47
2022-07-31T20:52:53.709Z,3.45
2022-07-31T20:57:52.526Z,3.22
2022-07-31T21:02:51.578Z,2.90
2022-07-31T21:07:50.782Z,3.10
2022-07-31T21:12:50.911Z,3.53
2022-07-31T21:17:49.600Z,3.20
2022-07-31T21:22:48.309Z,3.90
2022-07-31T21:27:48.780Z,3.28
2022-07-31T21:32:49.340Z,3.30
2022-07-31T21:37:48.532Z,3.00
2022-07-31T21:42:57.259Z,3.08
2022-07-31T21:48:01.060Z,2.70
2022-07-31T21:52:59.742Z,2.60
2022-07-31T21:57:59.635Z,2.17
2022-07-31T22:03:00.223Z,2.00
2022-07-31T22:07:58.943Z,2.03
2022-07-31T22:12:57.779Z,1.92
2022-07-31T22:17:56.537Z,1.80
2022-07-31T22:22:57.958Z,1.48
2022-07-31T22:27:57.219Z,1.55
2022-07-31T22:32:58.897Z,1.60
2022-07-31T22:42:58.440Z,1.30
2022-07-31T22:48:01.831Z,1.40
2022-07-31T22:53:01.933Z,1.10
2022-07-31T22:58:00.654Z,1.52
2022-07-31T23:02:59.561Z,1.20
2022-07-31T23:07:58.308Z,1.17
2022-07-31T23:12:59.427Z,1.00
2022-07-31T23:17:59.721Z,1.45
2022-07-31T23:22:58.464Z,1.13
2022-07-31T23:27:58.635Z,0.82
2022-07-31T23:32:57.454Z,1.10
2022-07-31T23:37:56.225Z,1.30
2022-07-31T23:42:55.308Z,1.00
2022-07-31T23:47:55.547Z,0.90
2022-07-31T23:52:57.711Z,0.93
2022-07-31T23:57:56.435Z,1.00
